Meishomaru — JD3044 — position and weather

sailwx.info

Track history (hours):
 
Tides and Currents Weather Stations Pressure Air Temp Water Temp Dewpoint Dewpoint Depression Visibility Wind Speed Wind Dir Waves Ship Positions

Meishomaru

Last reported at 2015-May-22 21:07 UTC. Time now 2015-May-24 11:14 UTC.
Position N 34°07' E 134°46'.

Length 68 m; draft 4 m.

Type: Tanker. MMSI: 431001216.

Date/timePositionNaut miles runAvg speedWind from/ knotsBaromVisibWave heightAir tempDewpointWater temp
2015-May-22 21:07N 34°07' E 134°46'22110.1
2015-May-21 23:19N 34°51' E 139°09'2612.6
2015-May-21 21:16N 35°05' E 139°35'912.6
2015-May-21 20:33N 35°10' E 139°44'1111.1
2015-May-21 19:33N 35°21' E 139°42'1010.3
2015-May-21 18:33N 35°31' E 139°46'0 0.2
2015-May-21 17:24N 35°31' E 139°46'0 0.0
2015-May-21 16:24N 35°31' E 139°46'0 0.0
2015-May-21 15:18N 35°31' E 139°46'0 0.0
2015-May-21 14:24N 35°31' E 139°46'0 0.0
2015-May-21 13:27N 35°31' E 139°46'0 0.0
2015-May-21 12:30N 35°31' E 139°46'0 0.0
2015-May-21 11:24N 35°31' E 139°46'0 0.0
2015-May-21 10:30N 35°31' E 139°46'0 0.0
2015-May-21 09:21N 35°31' E 139°46'0 0.0
2015-May-21 08:24N 35°31' E 139°46'0 0.0
2015-May-21 07:30N 35°31' E 139°46'0 0.0
2015-May-21 06:30N 35°31' E 139°46'0 0.0
2015-May-21 05:04N 35°31' E 139°46'1 1.5
2015-May-21 04:33N 35°31' E 139°46'2 2.3
2015-May-21 03:32N 35°29' E 139°49'0 0.0
2015-May-21 02:32N 35°29' E 139°49'0 0.0
2015-May-21 01:32N 35°29' E 139°49'0 0.5
2015-May-21 00:34N 35°30' E 139°49'1312.8
2015-May-20 23:33N 35°33' E 140°05'0 0.2
2015-May-20 22:26N 35°33' E 140°05'0 0.0
2015-May-20 21:26N 35°33' E 140°05'0 0.1
2015-May-20 20:32N 35°33' E 140°05'0 0.0
2015-May-20 19:32N 35°33' E 140°05'0 0.0
2015-May-20 18:32N 35°33' E 140°05'0 0.0
2015-May-20 17:29N 35°33' E 140°05'0 0.1
2015-May-20 16:20N 35°33' E 140°05'0 0.1
2015-May-20 15:26N 35°33' E 140°05'0 0.0
2015-May-20 14:08N 35°33' E 140°05'0 0.1
2015-May-20 13:32N 35°33' E 140°05'0 0.0
2015-May-20 12:20N 35°33' E 140°05'0 0.0
2015-May-20 11:32N 35°33' E 140°05'0 0.0
2015-May-20 10:26N 35°33' E 140°05'0 0.0
2015-May-20 09:26N 35°33' E 140°05'0 0.0
2015-May-20 08:20N 35°33' E 140°05'0 0.1
2015-May-20 07:26N 35°33' E 140°05'0 0.1
2015-May-20 06:32N 35°33' E 140°05'0 0.0
2015-May-20 05:26N 35°33' E 140°05'0 0.1
2015-May-20 04:32N 35°33' E 140°05'0 0.0
2015-May-20 03:26N 35°33' E 140°05'0 0.0
2015-May-20 02:26N 35°33' E 140°05'0 0.0
2015-May-20 01:26N 35°33' E 140°05'0 0.0
2015-May-20 00:20N 35°33' E 140°05'0 0.1
2015-May-19 23:32N 35°33' E 140°05'0 0.0
2015-May-19 22:20N 35°33' E 140°05'0 0.0
2015-May-19 21:32N 35°33' E 140°05'0 0.0
2015-May-19 20:26N 35°33' E 140°05'0 0.0
2015-May-19 19:26N 35°33' E 140°05'0 0.0
2015-May-19 18:32N 35°33' E 140°05'0 0.0
2015-May-19 17:32N 35°33' E 140°05'0 0.1
2015-May-19 16:26N 35°33' E 140°05'0 0.0
2015-May-19 15:32N 35°33' E 140°05'0 0.0
2015-May-19 14:23N 35°33' E 140°05'0 0.1
2015-May-19 13:32N 35°33' E 140°05'0 0.1
2015-May-19 12:32N 35°33' E 140°05'0 0.0
2015-May-19 11:32N 35°33' E 140°05'0 0.0
2015-May-19 10:32N 35°33' E 140°05'0 0.0
2015-May-19 09:14N 35°33' E 140°05'0 0.1
2015-May-19 08:20N 35°33' E 140°05'0 0.0
2015-May-19 07:23N 35°33' E 140°05'3 4.0
2015-May-19 06:33N 35°32' E 140°01'1 1.3
2015-May-19 05:29N 35°31' E 140°02'0 0.0
2015-May-19 04:32N 35°31' E 140°02'0 0.2
2015-May-19 03:33N 35°31' E 140°03'6 5.8
2015-May-19 02:34N 35°29' E 139°56'0 0.1
2015-May-19 01:29N 35°29' E 139°56'0 0.0
2015-May-19 00:26N 35°29' E 139°56'0 0.0
2015-May-18 23:23N 35°29' E 139°56'0 0.1
2015-May-18 22:32N 35°29' E 139°56'0 0.1
2015-May-18 21:29N 35°29' E 139°56'0 0.1
2015-May-18 20:26N 35°29' E 139°56'0 0.0
2015-May-18 19:32N 35°29' E 139°56'0 0.0
2015-May-18 18:32N 35°29' E 139°56'0 0.0
2015-May-18 17:29N 35°29' E 139°56'0 0.0
2015-May-18 16:32N 35°29' E 139°56'0 0.0
2015-May-18 15:29N 35°29' E 139°56'0 0.3
2015-May-18 14:33N 35°29' E 139°55'1211.6
2015-May-18 13:33N 35°21' E 139°45'1211.5
2015-May-18 12:33N 35°10' E 139°47'24510.2
2015-May-17 12:29N 34°04' E 134°60'1112.0
2015-May-17 11:32N 34°15' E 134°58'1010.2
2015-May-17 10:33N 34°25' E 135°00'1110.6
2015-May-17 09:33N 34°36' E 135°03'8 8.1
2015-May-17 08:34N 34°37' E 134°53'31 2.8
2015-May-16 21:33N 34°07' E 134°47'1312.4
2015-May-16 20:32N 33°58' E 134°57'243 9.4
2015-May-15 18:33N 35°07' E 139°40'1110.6
2015-May-15 17:33N 35°17' E 139°45'10 9.8
2015-May-15 16:33N 35°27' E 139°46'1211.6
2015-May-15 15:33N 35°32' E 139°59'4 3.5
2015-May-15 14:29N 35°32' E 140°03'0 0.0
2015-May-15 13:29N 35°32' E 140°03'0 0.0
2015-May-15 12:29N 35°32' E 140°03'0 0.0
2015-May-15 11:32N 35°32' E 140°03'0 0.0
2015-May-15 10:32N 35°32' E 140°03'0 0.0
2015-May-15 09:32N 35°32' E 140°03'0 0.0
2015-May-15 08:32N 35°32' E 140°03'0 0.0
2015-May-15 07:29N 35°32' E 140°03'0 0.0
2015-May-15 06:26N 35°32' E 140°03'0 0.0
2015-May-15 05:32N 35°32' E 140°03'0 0.0
2015-May-15 04:32N 35°32' E 140°03'2 2.2
2015-May-15 03:33N 35°32' E 140°01'5 5.0
2015-May-15 02:34N 35°29' E 139°55'0 0.0
2015-May-15 01:34N 35°29' E 139°55'0 0.0
2015-May-15 00:33N 35°29' E 139°55'0 0.0
2015-May-14 23:34N 35°29' E 139°55'0 0.0
2015-May-14 22:33N 35°29' E 139°55'0 0.0
2015-May-14 21:33N 35°29' E 139°55'0 0.0
2015-May-14 20:33N 35°29' E 139°55'0 0.0
2015-May-14 19:33N 35°29' E 139°55'0 0.0
2015-May-14 18:33N 35°29' E 139°55'0 0.0
2015-May-14 17:33N 35°29' E 139°55'0 0.0
2015-May-14 16:33N 35°29' E 139°55'0 0.1
2015-May-14 15:33N 35°29' E 139°55'0 0.0
2015-May-14 14:33N 35°29' E 139°55'0 0.0
2015-May-14 13:33N 35°29' E 139°55'0 0.3
2015-May-14 12:33N 35°29' E 139°55'1211.9
2015-May-14 11:33N 35°21' E 139°45'1211.6
2015-May-14 10:33N 35°09' E 139°47'1212.2
2015-May-14 09:33N 35°00' E 139°37'1513.5
2015-May-14 08:25N 34°51' E 139°22'22910.9
2015-May-13 11:28N 34°01' E 134°51'4012.1
2015-May-13 08:09N 34°40' E 134°38'  
Track history (hours):
 
Tides and Currents Weather Stations Pressure Air Temp Water Temp Dewpoint Dewpoint Depression Visibility Wind Speed Wind Dir Waves Ship Positions

Meishomaru

Last reported at 2015-May-22 21:07 UTC. Time now 2015-May-24 11:14 UTC.
Position N 34°07' E 134°46'.

Length 68 m; draft 4 m.

Type: Tanker. MMSI: 431001216.

Date/timePositionNaut miles runAvg speedWind from/ knotsBaromVisibWave heightAir tempDewpointWater temp
2015-May-22 21:07N 34°07' E 134°46'22110.1
2015-May-21 23:19N 34°51' E 139°09'2612.6
2015-May-21 21:16N 35°05' E 139°35'912.6
2015-May-21 20:33N 35°10' E 139°44'1111.1
2015-May-21 19:33N 35°21' E 139°42'1010.3
2015-May-21 18:33N 35°31' E 139°46'0 0.2
2015-May-21 17:24N 35°31' E 139°46'0 0.0
2015-May-21 16:24N 35°31' E 139°46'0 0.0
2015-May-21 15:18N 35°31' E 139°46'0 0.0
2015-May-21 14:24N 35°31' E 139°46'0 0.0
2015-May-21 13:27N 35°31' E 139°46'0 0.0
2015-May-21 12:30N 35°31' E 139°46'0 0.0
2015-May-21 11:24N 35°31' E 139°46'0 0.0
2015-May-21 10:30N 35°31' E 139°46'0 0.0
2015-May-21 09:21N 35°31' E 139°46'0 0.0
2015-May-21 08:24N 35°31' E 139°46'0 0.0
2015-May-21 07:30N 35°31' E 139°46'0 0.0
2015-May-21 06:30N 35°31' E 139°46'0 0.0
2015-May-21 05:04N 35°31' E 139°46'1 1.5
2015-May-21 04:33N 35°31' E 139°46'2 2.3
2015-May-21 03:32N 35°29' E 139°49'0 0.0
2015-May-21 02:32N 35°29' E 139°49'0 0.0
2015-May-21 01:32N 35°29' E 139°49'0 0.5
2015-May-21 00:34N 35°30' E 139°49'1312.8
2015-May-20 23:33N 35°33' E 140°05'0 0.2
2015-May-20 22:26N 35°33' E 140°05'0 0.0
2015-May-20 21:26N 35°33' E 140°05'0 0.1
2015-May-20 20:32N 35°33' E 140°05'0 0.0
2015-May-20 19:32N 35°33' E 140°05'0 0.0
2015-May-20 18:32N 35°33' E 140°05'0 0.0
2015-May-20 17:29N 35°33' E 140°05'0 0.1
2015-May-20 16:20N 35°33' E 140°05'0 0.1
2015-May-20 15:26N 35°33' E 140°05'0 0.0
2015-May-20 14:08N 35°33' E 140°05'0 0.1
2015-May-20 13:32N 35°33' E 140°05'0 0.0
2015-May-20 12:20N 35°33' E 140°05'0 0.0
2015-May-20 11:32N 35°33' E 140°05'0 0.0
2015-May-20 10:26N 35°33' E 140°05'0 0.0
2015-May-20 09:26N 35°33' E 140°05'0 0.0
2015-May-20 08:20N 35°33' E 140°05'0 0.1
2015-May-20 07:26N 35°33' E 140°05'0 0.1
2015-May-20 06:32N 35°33' E 140°05'0 0.0
2015-May-20 05:26N 35°33' E 140°05'0 0.1
2015-May-20 04:32N 35°33' E 140°05'0 0.0
2015-May-20 03:26N 35°33' E 140°05'0 0.0
2015-May-20 02:26N 35°33' E 140°05'0 0.0
2015-May-20 01:26N 35°33' E 140°05'0 0.0
2015-May-20 00:20N 35°33' E 140°05'0 0.1
2015-May-19 23:32N 35°33' E 140°05'0 0.0
2015-May-19 22:20N 35°33' E 140°05'0 0.0
2015-May-19 21:32N 35°33' E 140°05'0 0.0
2015-May-19 20:26N 35°33' E 140°05'0 0.0
2015-May-19 19:26N 35°33' E 140°05'0 0.0
2015-May-19 18:32N 35°33' E 140°05'0 0.0
2015-May-19 17:32N 35°33' E 140°05'0 0.1
2015-May-19 16:26N 35°33' E 140°05'0 0.0
2015-May-19 15:32N 35°33' E 140°05'0 0.0
2015-May-19 14:23N 35°33' E 140°05'0 0.1
2015-May-19 13:32N 35°33' E 140°05'0 0.1
2015-May-19 12:32N 35°33' E 140°05'0 0.0
2015-May-19 11:32N 35°33' E 140°05'0 0.0
2015-May-19 10:32N 35°33' E 140°05'0 0.0
2015-May-19 09:14N 35°33' E 140°05'0 0.1
2015-May-19 08:20N 35°33' E 140°05'0 0.0
2015-May-19 07:23N 35°33' E 140°05'3 4.0
2015-May-19 06:33N 35°32' E 140°01'1 1.3
2015-May-19 05:29N 35°31' E 140°02'0 0.0
2015-May-19 04:32N 35°31' E 140°02'0 0.2
2015-May-19 03:33N 35°31' E 140°03'6 5.8
2015-May-19 02:34N 35°29' E 139°56'0 0.1
2015-May-19 01:29N 35°29' E 139°56'0 0.0
2015-May-19 00:26N 35°29' E 139°56'0 0.0
2015-May-18 23:23N 35°29' E 139°56'0 0.1
2015-May-18 22:32N 35°29' E 139°56'0 0.1
2015-May-18 21:29N 35°29' E 139°56'0 0.1
2015-May-18 20:26N 35°29' E 139°56'0 0.0
2015-May-18 19:32N 35°29' E 139°56'0 0.0
2015-May-18 18:32N 35°29' E 139°56'0 0.0
2015-May-18 17:29N 35°29' E 139°56'0 0.0
2015-May-18 16:32N 35°29' E 139°56'0 0.0
2015-May-18 15:29N 35°29' E 139°56'0 0.3
2015-May-18 14:33N 35°29' E 139°55'1211.6
2015-May-18 13:33N 35°21' E 139°45'1211.5
2015-May-18 12:33N 35°10' E 139°47'24510.2
2015-May-17 12:29N 34°04' E 134°60'1112.0
2015-May-17 11:32N 34°15' E 134°58'1010.2
2015-May-17 10:33N 34°25' E 135°00'1110.6
2015-May-17 09:33N 34°36' E 135°03'8 8.1
2015-May-17 08:34N 34°37' E 134°53'31 2.8
2015-May-16 21:33N 34°07' E 134°47'1312.4
2015-May-16 20:32N 33°58' E 134°57'243 9.4
2015-May-15 18:33N 35°07' E 139°40'1110.6
2015-May-15 17:33N 35°17' E 139°45'10 9.8
2015-May-15 16:33N 35°27' E 139°46'1211.6
2015-May-15 15:33N 35°32' E 139°59'4 3.5
2015-May-15 14:29N 35°32' E 140°03'0 0.0
2015-May-15 13:29N 35°32' E 140°03'0 0.0
2015-May-15 12:29N 35°32' E 140°03'0 0.0
2015-May-15 11:32N 35°32' E 140°03'0 0.0
2015-May-15 10:32N 35°32' E 140°03'0 0.0
2015-May-15 09:32N 35°32' E 140°03'0 0.0
2015-May-15 08:32N 35°32' E 140°03'0 0.0
2015-May-15 07:29N 35°32' E 140°03'0 0.0
2015-May-15 06:26N 35°32' E 140°03'0 0.0
2015-May-15 05:32N 35°32' E 140°03'0 0.0
2015-May-15 04:32N 35°32' E 140°03'2 2.2
2015-May-15 03:33N 35°32' E 140°01'5 5.0
2015-May-15 02:34N 35°29' E 139°55'0 0.0
2015-May-15 01:34N 35°29' E 139°55'0 0.0
2015-May-15 00:33N 35°29' E 139°55'0 0.0
2015-May-14 23:34N 35°29' E 139°55'0 0.0
2015-May-14 22:33N 35°29' E 139°55'0 0.0
2015-May-14 21:33N 35°29' E 139°55'0 0.0
2015-May-14 20:33N 35°29' E 139°55'0 0.0
2015-May-14 19:33N 35°29' E 139°55'0 0.0
2015-May-14 18:33N 35°29' E 139°55'0 0.0
2015-May-14 17:33N 35°29' E 139°55'0 0.0
2015-May-14 16:33N 35°29' E 139°55'0 0.1
2015-May-14 15:33N 35°29' E 139°55'0 0.0
2015-May-14 14:33N 35°29' E 139°55'0 0.0
2015-May-14 13:33N 35°29' E 139°55'0 0.3
2015-May-14 12:33N 35°29' E 139°55'1211.9
2015-May-14 11:33N 35°21' E 139°45'1211.6
2015-May-14 10:33N 35°09' E 139°47'1212.2
2015-May-14 09:33N 35°00' E 139°37'1513.5
2015-May-14 08:25N 34°51' E 139°22'22910.9
2015-May-13 11:28N 34°01' E 134°51'4012.1
2015-May-13 08:09N 34°40' E 134°38'  

Dump ship's entire track history